KUGR11 CYOD-CYOD

Flight info

Callsign KUGR11
Flight time 0h 33m
Altitude 16500
Route VFR ACTIVATE R204
Aircraft F18H/M-V/N

Departure

Time 2026-04-19 01:22
Airport CFB Cold Lake (CYOD)

Arrival

Time 2026-04-19 01:55
Airport CFB Cold Lake (CYOD)
Time Latitude Longitude Altitude Speed Heading
2026-04-19 00:18 54.40688 -110.27231 1777 ft 0 kts
2026-04-19 00:43 54.40690 -110.27230 1777 ft 3 kts
2026-04-19 00:43 54.40686 -110.27284 1777 ft 10 kts 221°
2026-04-19 00:44 54.40640 -110.27368 1779 ft 10 kts 214°
2026-04-19 00:44 54.40597 -110.27354 1777 ft 0 kts 139°
2026-04-19 01:15 54.40592 -110.27346 1777 ft 4 kts 140°
2026-04-19 01:15 54.40566 -110.27367 1779 ft 7 kts 263°
2026-04-19 01:16 54.40555 -110.27391 1779 ft 0 kts 191°
2026-04-19 01:18 54.40529 -110.27375 1777 ft 8 kts 150°
2026-04-19 01:18 54.40449 -110.27382 1778 ft 18 kts 217°
2026-04-19 01:19 54.40366 -110.27555 1779 ft 16 kts 232°
2026-04-19 01:19 54.40305 -110.27691 1778 ft 12 kts 234°
2026-04-19 01:19 54.40257 -110.27803 1778 ft 12 kts 233°
2026-04-19 01:19 54.40192 -110.27950 1778 ft 17 kts 232°
2026-04-19 01:20 54.40124 -110.27960 1778 ft 15 kts 112°
2026-04-19 01:20 54.40060 -110.27775 1777 ft 18 kts 180°
2026-04-19 01:20 54.39967 -110.27883 1776 ft 17 kts 234°
2026-04-19 01:20 54.39994 -110.28038 1778 ft 14 kts 325°
2026-04-19 01:21 54.40035 -110.28087 1779 ft 0 kts 326°
2026-04-19 01:21 54.40041 -110.28093 1779 ft 6 kts 324°
2026-04-19 01:21 54.40536 -110.28710 1779 ft 183 kts 324°
2026-04-19 01:22 54.41810 -110.30295 2925 ft 266 kts 324°
2026-04-19 01:22 54.43401 -110.31964 4566 ft 247 kts 336°
2026-04-19 01:22 54.44865 -110.32579 6005 ft 190 kts
2026-04-19 01:22 54.45855 -110.31833 7130 ft 139 kts 51°
2026-04-19 01:23 54.46310 -110.30094 7792 ft 189 kts 74°
2026-04-19 01:23 54.46474 -110.27493 8643 ft 266 kts 82°
2026-04-19 01:23 54.46653 -110.23763 9546 ft 361 kts 82°
2026-04-19 01:23 54.47038 -110.18984 10869 ft 421 kts 73°
2026-04-19 01:24 54.47806 -110.14205 12366 ft 409 kts 68°
2026-04-19 01:24 54.48752 -110.09548 14017 ft 417 kts 65°
2026-04-19 01:24 54.49812 -110.04870 15693 ft 422 kts 63°
2026-04-19 01:24 54.50948 -110.00154 16358 ft 441 kts 62°
2026-04-19 01:25 54.52219 -109.95301 15587 ft 456 kts 57°
2026-04-19 01:25 54.53923 -109.90673 15269 ft 462 kts 50°
2026-04-19 01:25 54.55902 -109.86297 15142 ft 461 kts 45°
2026-04-19 01:25 54.58021 -109.82176 15092 ft 456 kts 43°
2026-04-19 01:26 54.60176 -109.78205 15078 ft 449 kts 42°
2026-04-19 01:26 54.62442 -109.74618 15075 ft 436 kts 34°
2026-04-19 01:26 54.64821 -109.71461 15072 ft 425 kts 32°
2026-04-19 01:26 54.67078 -109.68195 15075 ft 424 kts 38°
2026-04-19 01:27 54.69289 -109.64847 15070 ft 422 kts 34°
2026-04-19 01:27 54.71530 -109.61657 15070 ft 422 kts 37°
2026-04-19 01:27 54.73772 -109.58270 15070 ft 422 kts 35°
2026-04-19 01:27 54.76000 -109.55064 15067 ft 421 kts 36°
2026-04-19 01:28 54.78218 -109.51743 15064 ft 422 kts 35°
2026-04-19 01:28 54.80632 -109.48956 15082 ft 413 kts 21°
2026-04-19 01:28 54.83320 -109.47336 15086 ft 407 kts
2026-04-19 01:28 54.86117 -109.46973 15090 ft 401 kts 353°
2026-04-19 01:29 54.88845 -109.47885 15087 ft 398 kts 339°
2026-04-19 01:29 54.91320 -109.50001 15088 ft 397 kts 325°
2026-04-19 01:29 54.93389 -109.53190 15086 ft 399 kts 311°
2026-04-19 01:29 54.94908 -109.57229 15082 ft 403 kts 297°
2026-04-19 01:30 54.95789 -109.61883 15074 ft 408 kts 284°
2026-04-19 01:30 54.96265 -109.66764 15060 ft 410 kts 282°
2026-04-19 01:30 54.96704 -109.71665 15051 ft 410 kts 283°
2026-04-19 01:30 54.97286 -109.76505 15050 ft 406 kts 291°
2026-04-19 01:31 54.98458 -109.80873 15065 ft 402 kts 305°
2026-04-19 01:31 55.00243 -109.84567 15067 ft 399 kts 319°
2026-04-19 01:31 55.02485 -109.87425 15060 ft 399 kts 328°
2026-04-19 01:31 55.04868 -109.89922 15050 ft 400 kts 329°
2026-04-19 01:32 55.07281 -109.92355 15048 ft 400 kts 328°
2026-04-19 01:32 55.09553 -109.95158 15053 ft 400 kts 321°
2026-04-19 01:32 55.11506 -109.98620 15061 ft 401 kts 307°
2026-04-19 01:32 55.12881 -110.02880 15066 ft 405 kts 293°
2026-04-19 01:33 55.13760 -110.07580 13204 ft 427 kts 284°
2026-04-19 01:33 55.14113 -110.13037 8776 ft 473 kts 271°
2026-04-19 01:33 55.13793 -110.18839 6298 ft 472 kts 257°
2026-04-19 01:33 55.12868 -110.24095 5129 ft 438 kts 251°
2026-04-19 01:34 55.11811 -110.29068 3693 ft 432 kts 249°
2026-04-19 01:34 55.10770 -110.33779 3303 ft 398 kts 248°
2026-04-19 01:34 55.09754 -110.38109 2675 ft 374 kts 246°
2026-04-19 01:34 55.08682 -110.41987 2602 ft 336 kts 238°
2026-04-19 01:35 55.07288 -110.44830 2817 ft 285 kts 213°
2026-04-19 01:35 55.05676 -110.46248 2988 ft 226 kts 231°
2026-04-19 01:35 55.05542 -110.48335 3808 ft 233 kts 269°
2026-04-19 01:35 55.05540 -110.51669 2986 ft 289 kts 252°
2026-04-19 01:36 55.04163 -110.53806 3380 ft 278 kts 185°
2026-04-19 01:36 55.02210 -110.54672 3646 ft 293 kts 196°
2026-04-19 01:36 55.00385 -110.54559 3915 ft 242 kts 129°
2026-04-19 01:36 55.00156 -110.51963 3754 ft 245 kts 71°
2026-04-19 01:37 55.00623 -110.48908 3436 ft 280 kts 81°
2026-04-19 01:37 55.00613 -110.45240 3149 ft 333 kts 102°
2026-04-19 01:37 54.99749 -110.40479 2948 ft 503 kts 110°
2026-04-19 01:37 54.98520 -110.33710 2960 ft 629 kts 102°
2026-04-19 01:38 54.97785 -110.26510 2771 ft 584 kts 97°
2026-04-19 01:38 54.97352 -110.19650 2788 ft 556 kts 97°
2026-04-19 01:38 54.96835 -110.13086 2854 ft 539 kts 98°
2026-04-19 01:38 54.96217 -110.06719 2900 ft 529 kts 100°
2026-04-19 01:39 54.95549 -110.00491 3161 ft 507 kts 102°
2026-04-19 01:39 54.94915 -109.95397 6930 ft 401 kts 104°
2026-04-19 01:39 54.94627 -109.90534 7792 ft 399 kts 84°
2026-04-19 01:39 54.95040 -109.85997 8590 ft 349 kts 72°
2026-04-19 01:40 54.95768 -109.82465 9384 ft 277 kts 57°
2026-04-19 01:40 54.96841 -109.80609 10244 ft 176 kts 24°
2026-04-19 01:40 54.97442 -109.79070 10616 ft 162 kts 75°
2026-04-19 01:40 54.97112 -109.76905 10776 ft 222 kts 120°
2026-04-19 01:41 54.96007 -109.74387 10983 ft 294 kts 128°
2026-04-19 01:41 54.94677 -109.71517 11504 ft 296 kts 131°
2026-04-19 01:41 54.92960 -109.70305 11656 ft 255 kts 189°
2026-04-19 01:41 54.91602 -109.71592 11602 ft 207 kts 253°
2026-04-19 01:42 54.91645 -109.73829 11245 ft 182 kts 303°
2026-04-19 01:42 54.92408 -109.75688 11667 ft 206 kts 311°
2026-04-19 01:42 54.94422 -109.79758 12662 ft 234 kts 313°
2026-04-19 01:43 54.95576 -109.81813 13208 ft 240 kts 319°
2026-04-19 01:43 54.96865 -109.83679 13848 ft 241 kts 324°
2026-04-19 01:43 54.98456 -109.84298 14205 ft 249 kts
2026-04-19 01:43 54.99999 -109.82679 14231 ft 281 kts 46°
2026-04-19 01:44 55.00729 -109.79367 14232 ft 312 kts 82°
2026-04-19 01:44 55.00351 -109.75520 14331 ft 336 kts 109°
2026-04-19 01:44 54.99421 -109.71668 14561 ft 352 kts 109°
2026-04-19 01:44 54.98413 -109.67671 14864 ft 371 kts 113°
2026-04-19 01:45 54.97266 -109.63527 14954 ft 384 kts 112°
2026-04-19 01:45 54.96072 -109.59121 14988 ft 431 kts 112°
2026-04-19 01:45 54.94776 -109.54236 15002 ft 464 kts 112°
2026-04-19 01:45 54.93241 -109.49269 15006 ft 469 kts 128°
2026-04-19 01:46 54.90707 -109.45741 15010 ft 470 kts 156°
2026-04-19 01:46 54.87550 -109.44645 14989 ft 463 kts 187°
2026-04-19 01:46 54.84537 -109.46245 14977 ft 448 kts 219°
2026-04-19 01:46 54.82625 -109.50107 14924 ft 428 kts 253°
2026-04-19 01:47 54.82378 -109.54978 14903 ft 409 kts 288°
2026-04-19 01:47 54.83250 -109.59686 14961 ft 412 kts 291°
2026-04-19 01:47 54.84153 -109.64396 14984 ft 407 kts 291°
2026-04-19 01:47 54.84189 -109.69211 14898 ft 415 kts 248°
2026-04-19 01:48 54.82052 -109.72639 14829 ft 445 kts 199°
2026-04-19 01:48 54.78912 -109.73515 14900 ft 467 kts 191°
2026-04-19 01:48 54.75696 -109.74587 14958 ft 477 kts 197°
2026-04-19 01:48 54.72470 -109.76232 14984 ft 489 kts 202°
2026-04-19 01:49 54.69184 -109.78111 15004 ft 507 kts 196°
2026-04-19 01:49 54.65614 -109.78971 15024 ft 530 kts 184°
2026-04-19 01:49 54.62031 -109.78635 15019 ft 508 kts 172°
2026-04-19 01:49 54.58868 -109.79390 14763 ft 426 kts 222°
2026-04-19 01:50 54.56463 -109.82052 14885 ft 400 kts 209°
2026-04-19 01:50 54.53942 -109.83689 14937 ft 373 kts 207°
2026-04-19 01:50 54.51712 -109.85849 14957 ft 372 kts 224°
2026-04-19 01:50 54.49860 -109.89095 14964 ft 392 kts 238°
2026-04-19 01:51 54.48257 -109.93219 13425 ft 437 kts 244°
2026-04-19 01:51 54.46685 -109.98065 11024 ft 490 kts 244°
2026-04-19 01:51 54.45006 -110.03355 8523 ft 525 kts 239°
2026-04-19 01:51 54.42762 -110.08491 5982 ft 544 kts 229°
2026-04-19 01:52 54.40305 -110.13229 4226 ft 518 kts 225°
2026-04-19 01:52 54.37802 -110.17494 3517 ft 489 kts 222°
2026-04-19 01:52 54.35604 -110.21430 3218 ft 409 kts 260°
2026-04-19 01:52 54.36987 -110.24319 3031 ft 318 kts 324°
2026-04-19 01:53 54.38718 -110.26450 2401 ft 306 kts 323°
2026-04-19 01:53 54.40433 -110.28326 2275 ft 264 kts 14°
2026-04-19 01:53 54.40129 -110.26441 2364 ft 251 kts 147°
2026-04-19 01:53 54.38653 -110.24808 2522 ft 248 kts 141°
2026-04-19 01:54 54.37464 -110.24871 2763 ft 199 kts 281°
2026-04-19 01:54 54.38395 -110.26282 2384 ft 179 kts 335°
2026-04-19 01:54 54.39368 -110.27230 1784 ft 146 kts 325°
2026-04-19 01:54 54.39930 -110.27942 1776 ft 66 kts 326°
2026-04-19 01:55 54.40144 -110.28090 1778 ft 15 kts 60°
2026-04-19 01:55 54.40187 -110.27969 1778 ft 10 kts 57°
2026-04-19 01:55 54.40218 -110.27892 1778 ft 7 kts 52°
2026-04-19 01:55 54.40248 -110.27830 1778 ft 7 kts 45°
2026-04-19 01:56 54.40296 -110.27787 1778 ft 9 kts 14°
2026-04-19 01:56 54.40360 -110.27766 1778 ft 10 kts 11°
2026-04-19 01:56 54.40425 -110.27710 1778 ft 11 kts 45°
2026-04-19 01:56 54.40474 -110.27603 1778 ft 12 kts 49°
2026-04-19 01:57 54.40502 -110.27603 1777 ft 0 kts 292°